createdAt,value
2019-03-05T00:02:32.072Z,9.91
2019-03-05T00:05:21.091Z,9.91
2019-03-05T00:08:09.938Z,9.91
2019-03-05T00:10:58.788Z,9.92
2019-03-05T00:13:47.603Z,9.93
2019-03-05T00:16:36.437Z,9.95
2019-03-05T00:19:25.267Z,9.95
2019-03-05T00:22:14.074Z,9.97
2019-03-05T00:25:23.918Z,9.98
2019-03-05T00:28:03.493Z,9.99
2019-03-05T00:30:46.951Z,9.99
2019-03-05T00:33:39.390Z,10.00
2019-03-05T00:36:19.329Z,10.00
2019-03-05T00:39:26.442Z,10.01
2019-03-05T00:42:43.084Z,10.02
2019-03-05T00:45:39.826Z,10.02
2019-03-05T00:48:39.511Z,10.03
2019-03-05T00:51:25.140Z,10.02
2019-03-05T00:54:20.271Z,10.03
2019-03-05T00:56:57.325Z,10.02
2019-03-05T00:59:34.468Z,10.02
2019-03-05T01:02:29.375Z,10.03
2019-03-05T01:05:36.843Z,10.03
2019-03-05T01:08:06.548Z,10.04
2019-03-05T01:10:36.084Z,10.04
2019-03-05T01:13:06.284Z,10.04
2019-03-05T01:15:35.987Z,10.05
2019-03-05T01:18:05.543Z,10.06
2019-03-05T01:20:35.093Z,10.05
2019-03-05T01:23:04.628Z,10.06
2019-03-05T01:25:37.093Z,10.06
2019-03-05T01:28:06.965Z,10.05
2019-03-05T01:30:52.922Z,10.05
2019-03-05T01:33:22.542Z,10.03
2019-03-05T01:35:56.374Z,10.02
2019-03-05T01:38:25.865Z,9.99
2019-03-05T01:40:57.023Z,9.96
2019-03-05T01:43:26.567Z,9.94
2019-03-05T01:45:56.124Z,9.90
2019-03-05T01:48:25.653Z,9.87
2019-03-05T01:50:55.146Z,9.83
2019-03-05T01:53:24.626Z,9.78
2019-03-05T01:55:54.160Z,9.73
2019-03-05T01:58:23.617Z,9.66
2019-03-05T02:00:53.211Z,9.61
2019-03-05T02:03:22.884Z,9.56
2019-03-05T02:05:52.490Z,9.49
2019-03-05T02:08:22.147Z,9.45
2019-03-05T02:10:51.626Z,9.40
2019-03-05T02:13:21.324Z,9.33
2019-03-05T02:15:50.803Z,9.29
2019-03-05T02:18:21.678Z,9.24
2019-03-05T02:20:51.231Z,9.18
2019-03-05T02:23:28.445Z,9.13
2019-03-05T02:26:08.198Z,9.09
2019-03-05T02:28:48.189Z,9.05
2019-03-05T02:31:49.376Z,9.01
2019-03-05T02:34:35.359Z,8.97
2019-03-05T02:37:21.575Z,8.93
2019-03-05T02:40:07.537Z,8.89
2019-03-05T02:43:11.585Z,8.83
2019-03-05T02:45:48.391Z,8.77
2019-03-05T02:48:37.468Z,8.73
2019-03-05T02:51:23.413Z,8.67
2019-03-05T02:54:23.059Z,8.64
2019-03-05T02:57:08.429Z,8.63
2019-03-05T02:59:38.511Z,8.61
2019-03-05T03:02:20.467Z,8.61
2019-03-05T03:04:51.633Z,8.60
2019-03-05T03:07:21.115Z,8.60
2019-03-05T03:09:55.297Z,8.59
2019-03-05T03:12:24.859Z,8.60
2019-03-05T03:14:54.395Z,8.61
2019-03-05T03:17:23.848Z,8.62
2019-03-05T03:19:53.398Z,8.63
2019-03-05T03:22:22.915Z,8.65
2019-03-05T03:24:52.384Z,8.65
2019-03-05T03:27:21.850Z,8.68
2019-03-05T03:29:51.327Z,8.72
2019-03-05T03:32:20.862Z,8.74
2019-03-05T03:34:50.366Z,8.75
2019-03-05T03:37:19.843Z,8.78
2019-03-05T03:39:49.298Z,8.79
2019-03-05T03:42:18.813Z,8.80
2019-03-05T03:44:48.258Z,8.34
2019-03-05T03:47:17.729Z,8.85
2019-03-05T03:49:47.300Z,8.85
2019-03-05T03:52:16.790Z,8.88
2019-03-05T03:54:46.265Z,8.91
2019-03-05T03:57:15.722Z,8.93
2019-03-05T03:59:45.314Z,8.93
2019-03-05T04:02:14.798Z,8.95
2019-03-05T04:04:44.244Z,8.95
2019-03-05T04:07:13.890Z,8.96
2019-03-05T04:09:43.341Z,8.94
2019-03-05T04:12:12.839Z,8.91
2019-03-05T04:14:42.300Z,8.85
2019-03-05T04:17:11.800Z,8.80
2019-03-05T04:19:41.265Z,8.76
2019-03-05T04:22:10.753Z,8.71
2019-03-05T04:24:40.337Z,8.67
2019-03-05T04:27:09.778Z,8.64
2019-03-05T04:29:39.261Z,8.62
2019-03-05T04:32:08.761Z,8.60
2019-03-05T04:34:38.218Z,8.59
2019-03-05T04:37:07.684Z,8.57
2019-03-05T04:39:37.165Z,8.57
2019-03-05T04:42:06.659Z,8.56
2019-03-05T04:44:37.758Z,8.54
2019-03-05T04:47:07.247Z,8.53
2019-03-05T04:49:56.689Z,8.52
2019-03-05T04:52:26.255Z,8.52
2019-03-05T04:54:55.701Z,8.52
2019-03-05T04:57:26.353Z,8.51
2019-03-05T04:59:56.727Z,8.51
2019-03-05T05:02:26.283Z,8.51
2019-03-05T05:04:58.710Z,8.51
2019-03-05T05:07:28.175Z,8.52
2019-03-05T05:09:57.669Z,8.52
2019-03-05T05:12:27.126Z,8.54
2019-03-05T05:14:56.601Z,8.55
2019-03-05T05:17:26.056Z,8.58
2019-03-05T05:19:55.535Z,8.59
2019-03-05T05:22:25.017Z,8.62
2019-03-05T05:24:54.539Z,8.64
2019-03-05T05:27:24.040Z,8.65
2019-03-05T05:29:53.526Z,8.66
2019-03-05T05:32:22.994Z,8.69
2019-03-05T05:34:52.455Z,8.71
2019-03-05T05:37:21.952Z,8.72
2019-03-05T05:40:23.588Z,8.71
2019-03-05T05:42:53.211Z,8.69
2019-03-05T05:45:41.290Z,8.68
2019-03-05T05:48:10.794Z,8.66
2019-03-05T05:50:40.247Z,8.63
2019-03-05T05:53:09.730Z,8.62
2019-03-05T05:55:39.188Z,8.60
2019-03-05T05:58:08.760Z,8.59
2019-03-05T06:00:42.336Z,8.58
2019-03-05T06:03:11.880Z,8.57
2019-03-05T06:05:41.356Z,8.56
2019-03-05T06:08:10.886Z,8.55
2019-03-05T06:10:40.456Z,8.54
2019-03-05T06:13:09.963Z,8.55
2019-03-05T06:15:39.512Z,8.55
2019-03-05T06:18:08.990Z,8.54
2019-03-05T06:20:38.490Z,8.54
2019-03-05T06:23:07.994Z,8.55
2019-03-05T06:25:37.528Z,8.54
2019-03-05T06:28:07.033Z,8.55
2019-03-05T06:30:42.000Z,8.54
2019-03-05T06:33:11.630Z,8.54
2019-03-05T06:35:41.118Z,8.54
2019-03-05T06:38:29.929Z,8.54
2019-03-05T06:41:18.751Z,8.53
2019-03-05T06:44:09.458Z,8.53
2019-03-05T06:46:58.222Z,8.18
2019-03-05T06:49:47.066Z,8.02
2019-03-05T06:52:35.895Z,8.52
2019-03-05T06:55:24.744Z,8.50
2019-03-05T06:58:13.660Z,8.10
2019-03-05T07:01:02.481Z,8.45
2019-03-05T07:03:51.291Z,8.42
2019-03-05T07:06:59.424Z,8.37
2019-03-05T07:10:09.160Z,7.94
2019-03-05T07:13:18.871Z,8.27
2019-03-05T07:16:02.380Z,8.22
2019-03-05T07:19:12.115Z,8.17
2019-03-05T07:22:22.063Z,8.13
2019-03-05T07:24:51.907Z,8.10
2019-03-05T07:27:28.010Z,8.06
2019-03-05T07:30:02.098Z,8.04
2019-03-05T07:32:31.652Z,8.03
2019-03-05T07:35:01.167Z,8.01
2019-03-05T07:37:30.614Z,7.99
2019-03-05T07:40:00.373Z,7.99
2019-03-05T07:42:29.800Z,7.99
2019-03-05T07:44:59.306Z,7.98
2019-03-05T07:47:28.766Z,7.98
2019-03-05T07:49:58.228Z,7.98
2019-03-05T07:52:27.793Z,7.99
2019-03-05T07:54:57.307Z,7.99
2019-03-05T07:57:26.757Z,8.00
2019-03-05T07:59:56.250Z,8.00
2019-03-05T08:02:25.780Z,8.00
2019-03-05T08:04:55.346Z,8.01
2019-03-05T08:07:24.789Z,8.00
2019-03-05T08:09:55.730Z,8.01
2019-03-05T08:12:35.651Z,8.01
2019-03-05T08:15:15.752Z,8.03
2019-03-05T08:17:47.026Z,8.07
2019-03-05T08:20:16.428Z,8.12
2019-03-05T08:22:45.937Z,8.15
2019-03-05T08:25:15.993Z,8.17
2019-03-05T08:27:45.512Z,8.20
2019-03-05T08:30:18.874Z,8.23
2019-03-05T08:32:48.418Z,8.25
2019-03-05T08:35:17.976Z,8.27
2019-03-05T08:37:47.465Z,8.28
2019-03-05T08:40:17.608Z,8.29
2019-03-05T08:42:47.057Z,8.31
2019-03-05T08:45:28.508Z,8.33
2019-03-05T08:47:48.937Z,8.35
2019-03-05T08:50:18.613Z,8.39
2019-03-05T08:52:48.205Z,8.43
2019-03-05T08:55:17.812Z,8.45
2019-03-05T08:57:47.267Z,8.47
2019-03-05T09:00:21.174Z,8.48
2019-03-05T09:02:50.808Z,8.49
2019-03-05T09:05:20.846Z,8.50
2019-03-05T09:07:50.420Z,8.52
2019-03-05T09:10:24.473Z,8.53
2019-03-05T09:12:54.034Z,8.54
2019-03-05T09:15:23.661Z,8.56
2019-03-05T09:17:53.223Z,8.59
2019-03-05T09:20:22.678Z,8.62
2019-03-05T09:22:52.228Z,8.67
2019-03-05T09:25:21.794Z,8.72
2019-03-05T09:27:51.258Z,8.78
2019-03-05T09:30:22.370Z,8.84
2019-03-05T09:32:51.929Z,8.92
2019-03-05T09:35:21.418Z,8.97
2019-03-05T09:37:50.959Z,9.05
2019-03-05T09:40:31.914Z,9.11
2019-03-05T09:43:01.540Z,9.19
2019-03-05T09:45:31.055Z,9.27
2019-03-05T09:48:00.522Z,9.32
2019-03-05T09:50:32.166Z,9.37
2019-03-05T09:53:01.588Z,9.43
2019-03-05T09:55:36.927Z,9.49
2019-03-05T09:58:08.642Z,9.52
2019-03-05T10:00:38.772Z,9.55
2019-03-05T10:03:08.629Z,9.56
2019-03-05T10:05:38.206Z,9.59
2019-03-05T10:08:07.916Z,9.61
2019-03-05T10:10:37.604Z,9.66
2019-03-05T10:13:07.411Z,9.72
2019-03-05T10:15:36.975Z,9.78
2019-03-05T10:18:12.704Z,9.83
2019-03-05T10:20:37.955Z,9.86
2019-03-05T10:23:07.496Z,9.88
2019-03-05T10:25:37.052Z,9.90
2019-03-05T10:28:06.878Z,9.91
2019-03-05T10:30:41.128Z,9.93
2019-03-05T10:33:15.147Z,9.96
2019-03-05T10:35:44.891Z,9.97
2019-03-05T10:38:14.718Z,9.99
2019-03-05T10:40:51.266Z,10.00
2019-03-05T10:43:20.764Z,10.01
2019-03-05T10:45:50.866Z,10.04
2019-03-05T10:48:25.239Z,10.06
2019-03-05T10:50:54.817Z,10.08
2019-03-05T10:53:24.555Z,10.12
2019-03-05T10:55:54.086Z,10.14
2019-03-05T10:58:33.407Z,10.16
2019-03-05T11:00:57.111Z,10.19
2019-03-05T11:03:29.811Z,10.20
2019-03-05T11:05:59.774Z,10.23
2019-03-05T11:08:29.601Z,10.27
2019-03-05T11:11:00.516Z,10.32
2019-03-05T11:13:30.107Z,10.36
2019-03-05T11:16:02.488Z,10.40
2019-03-05T11:18:32.041Z,10.44
2019-03-05T11:21:01.662Z,10.49
2019-03-05T11:23:31.179Z,10.54
2019-03-05T11:26:00.773Z,10.58
2019-03-05T11:28:30.281Z,10.63
2019-03-05T11:30:59.766Z,10.68
2019-03-05T11:33:29.369Z,10.71
2019-03-05T11:35:58.829Z,10.79
2019-03-05T11:38:28.503Z,10.85
2019-03-05T11:40:58.213Z,10.94
2019-03-05T11:43:27.798Z,11.05
2019-03-05T11:45:57.418Z,11.15
2019-03-05T11:48:27.012Z,11.23
2019-03-05T11:50:56.505Z,11.30
2019-03-05T11:53:26.004Z,11.35
2019-03-05T11:55:55.484Z,11.41
2019-03-05T11:58:24.986Z,11.49
2019-03-05T12:01:01.713Z,11.55
2019-03-05T12:03:31.397Z,11.65
2019-03-05T12:06:01.006Z,11.74
2019-03-05T12:08:30.486Z,11.81
2019-03-05T12:10:59.967Z,11.87
2019-03-05T12:13:29.704Z,11.96
2019-03-05T12:15:59.418Z,12.01
2019-03-05T12:18:28.963Z,12.06
2019-03-05T12:20:58.435Z,12.11
2019-03-05T12:23:27.937Z,12.14
2019-03-05T12:25:57.534Z,12.18
2019-03-05T12:28:27.026Z,12.19
2019-03-05T12:30:56.563Z,12.16
2019-03-05T12:33:26.168Z,12.12
2019-03-05T12:35:55.760Z,12.11
2019-03-05T12:38:25.226Z,12.11
2019-03-05T12:40:54.770Z,12.11
2019-03-05T12:43:24.478Z,12.12
2019-03-05T12:45:54.032Z,12.15
2019-03-05T12:48:23.636Z,12.19
2019-03-05T12:50:53.186Z,12.22
2019-03-05T12:53:22.805Z,12.21
2019-03-05T12:55:52.425Z,12.15
2019-03-05T12:58:22.210Z,12.10
2019-03-05T13:00:51.823Z,12.02
2019-03-05T13:03:21.337Z,11.92
2019-03-05T13:05:50.922Z,11.76
2019-03-05T13:08:20.406Z,11.51
2019-03-05T13:10:49.998Z,11.20
2019-03-05T13:13:19.723Z,10.85
2019-03-05T13:15:52.959Z,10.55
2019-03-05T13:18:20.665Z,10.27
2019-03-05T13:20:50.134Z,10.04
2019-03-05T13:23:20.648Z,9.85
2019-03-05T13:25:50.148Z,9.68
2019-03-05T13:28:19.781Z,9.55
2019-03-05T13:30:49.426Z,9.42
2019-03-05T13:33:18.948Z,9.32
2019-03-05T13:35:48.532Z,9.24
2019-03-05T13:38:18.089Z,9.22
2019-03-05T13:40:47.658Z,9.22
2019-03-05T13:43:17.219Z,9.27
2019-03-05T13:45:49.585Z,9.31
2019-03-05T13:48:34.561Z,9.36
2019-03-05T13:51:59.612Z,9.42
2019-03-05T13:55:05.556Z,9.46
2019-03-05T13:57:45.506Z,9.52
2019-03-05T14:00:15.570Z,9.56
2019-03-05T14:03:04.877Z,9.58
2019-03-05T14:06:01.682Z,9.60
2019-03-05T14:08:47.571Z,9.63
2019-03-05T14:11:17.158Z,9.61
2019-03-05T14:13:46.759Z,9.60
2019-03-05T14:16:18.082Z,9.59
2019-03-05T14:18:47.872Z,9.60
2019-03-05T14:21:17.437Z,9.60
2019-03-05T14:24:06.301Z,9.63
2019-03-05T14:26:55.205Z,9.66
2019-03-05T14:29:44.197Z,9.73
2019-03-05T14:32:33.060Z,9.81
2019-03-05T14:38:37.782Z,10.03
2019-03-05T14:41:26.715Z,10.19
2019-03-05T14:44:15.797Z,9.91
2019-03-05T14:47:25.483Z,10.47
2019-03-05T14:50:14.382Z,10.59
2019-03-05T14:53:03.249Z,10.75
2019-03-05T14:55:54.498Z,10.86
2019-03-05T14:58:42.866Z,10.99
2019-03-05T15:01:31.890Z,11.10
2019-03-05T15:04:20.846Z,11.20
2019-03-05T15:06:50.388Z,11.30
2019-03-05T15:09:39.362Z,11.37
2019-03-05T15:12:28.373Z,11.40
2019-03-05T15:15:36.589Z,11.40
2019-03-05T15:18:25.529Z,11.35
2019-03-05T15:21:07.218Z,11.47
2019-03-05T15:23:56.157Z,11.49
2019-03-05T15:26:45.056Z,11.51
2019-03-05T15:29:33.954Z,11.49
2019-03-05T15:32:22.891Z,11.59
2019-03-05T15:38:40.552Z,11.72
2019-03-05T15:41:29.515Z,11.81
2019-03-05T15:44:18.597Z,11.85
2019-03-05T15:47:07.509Z,11.77
2019-03-05T15:49:56.483Z,11.88
2019-03-05T15:52:45.417Z,11.88
2019-03-05T15:55:34.281Z,11.86
2019-03-05T15:58:23.148Z,11.84
2019-03-05T16:01:18.876Z,11.80
2019-03-05T16:04:02.765Z,11.76
2019-03-05T16:06:51.690Z,11.49
2019-03-05T16:09:41.990Z,11.70
2019-03-05T16:12:31.178Z,11.49
2019-03-05T16:15:20.258Z,11.63
2019-03-05T16:18:05.283Z,11.61
2019-03-05T16:20:52.775Z,11.58
2019-03-05T16:23:41.641Z,11.41
2019-03-05T16:26:30.601Z,11.52
2019-03-05T16:29:20.158Z,11.48
2019-03-05T16:32:29.026Z,11.33
2019-03-05T16:35:36.948Z,11.41
2019-03-05T16:38:44.824Z,11.36
2019-03-05T16:41:33.519Z,11.30
2019-03-05T16:47:37.443Z,11.19
2019-03-05T16:50:45.307Z,11.12
2019-03-05T16:53:53.228Z,11.06
2019-03-05T16:57:01.108Z,10.99
2019-03-05T17:00:08.975Z,10.90
2019-03-05T17:06:26.396Z,10.75
2019-03-05T17:09:15.140Z,10.66
2019-03-05T17:12:04.078Z,10.57
2019-03-05T17:14:52.943Z,10.49
2019-03-05T17:17:35.003Z,10.40
2019-03-05T17:20:23.853Z,10.31
2019-03-05T17:23:12.707Z,10.21
2019-03-05T17:26:01.531Z,10.11
2019-03-05T17:28:50.398Z,9.81
2019-03-05T17:31:39.324Z,9.88
2019-03-05T17:34:39.947Z,9.75
2019-03-05T17:37:18.732Z,9.62
2019-03-05T17:40:28.511Z,9.51
2019-03-05T17:43:17.378Z,9.38
2019-03-05T17:46:06.258Z,9.24
2019-03-05T17:48:55.080Z,9.12
2019-03-05T17:51:43.996Z,9.00
2019-03-05T17:54:32.870Z,8.90
2019-03-05T17:57:21.738Z,8.80
2019-03-05T17:59:51.314Z,8.70
2019-03-05T18:02:20.926Z,8.60
2019-03-05T18:04:50.387Z,8.53
2019-03-05T18:07:19.915Z,8.44
2019-03-05T18:09:49.464Z,8.36
2019-03-05T18:12:19.045Z,8.28
2019-03-05T18:14:48.553Z,8.18
2019-03-05T18:17:18.177Z,8.11
2019-03-05T18:19:47.874Z,8.02
2019-03-05T18:22:17.475Z,7.94
2019-03-05T18:24:46.985Z,7.86
2019-03-05T18:27:16.580Z,7.54
2019-03-05T18:29:46.207Z,7.71
2019-03-05T18:32:15.769Z,7.64
2019-03-05T18:34:45.391Z,7.56
2019-03-05T18:37:15.072Z,7.51
2019-03-05T18:39:44.786Z,7.44
2019-03-05T18:42:14.382Z,7.38
2019-03-05T18:44:43.946Z,7.33
2019-03-05T18:47:13.458Z,7.27
2019-03-05T18:49:42.952Z,7.22
2019-03-05T18:52:12.520Z,7.15
2019-03-05T18:54:42.178Z,7.10
2019-03-05T18:57:11.714Z,7.05
2019-03-05T18:59:41.207Z,7.00
2019-03-05T19:02:10.808Z,6.96
2019-03-05T19:04:40.406Z,6.91
2019-03-05T19:07:10.015Z,6.85
2019-03-05T19:09:41.524Z,6.82
2019-03-05T19:12:11.191Z,6.77
2019-03-05T19:14:40.896Z,6.74
2019-03-05T19:17:10.574Z,6.70
2019-03-05T19:19:40.048Z,6.68
2019-03-05T19:22:09.556Z,6.64
2019-03-05T19:24:39.207Z,6.62
2019-03-05T19:27:08.851Z,6.61
2019-03-05T19:29:38.450Z,6.58
2019-03-05T19:32:08.100Z,6.57
2019-03-05T19:34:37.804Z,6.55
2019-03-05T19:37:07.381Z,6.52
2019-03-05T19:39:37.019Z,6.51
2019-03-05T19:42:06.672Z,6.48
2019-03-05T19:44:36.274Z,6.46
2019-03-05T19:47:06.050Z,6.44
2019-03-05T19:49:35.774Z,6.41
2019-03-05T19:52:05.463Z,6.39
2019-03-05T19:54:34.966Z,6.37
2019-03-05T19:57:04.534Z,6.35
2019-03-05T19:59:34.017Z,6.32
2019-03-05T20:02:03.611Z,6.30
2019-03-05T20:04:33.231Z,6.28
2019-03-05T20:07:02.779Z,6.23
2019-03-05T20:09:32.290Z,6.22
2019-03-05T20:12:01.800Z,6.20
2019-03-05T20:14:31.352Z,6.17
2019-03-05T20:17:00.928Z,6.14
2019-03-05T20:19:30.411Z,6.10
2019-03-05T20:22:00.002Z,6.08
2019-03-05T20:24:29.795Z,6.07
2019-03-05T20:26:59.450Z,6.05
2019-03-05T20:29:28.948Z,6.04
2019-03-05T20:31:58.524Z,6.01
2019-03-05T20:34:28.022Z,5.99
2019-03-05T20:36:57.838Z,5.97
2019-03-05T20:39:27.308Z,5.94
2019-03-05T20:41:56.947Z,5.92
2019-03-05T20:44:26.402Z,5.90
2019-03-05T20:46:56.025Z,5.89
2019-03-05T20:49:25.913Z,5.89
2019-03-05T20:51:55.487Z,5.89
2019-03-05T20:54:25.090Z,5.89
2019-03-05T20:56:54.612Z,5.91
2019-03-05T20:59:24.219Z,5.90
2019-03-05T21:01:53.866Z,5.89
2019-03-05T21:04:23.422Z,5.90
2019-03-05T21:06:52.898Z,5.90
2019-03-05T21:09:23.575Z,5.89
2019-03-05T21:11:53.147Z,5.88
2019-03-05T21:14:22.742Z,5.90
2019-03-05T21:16:52.387Z,5.87
2019-03-05T21:19:21.989Z,5.86
2019-03-05T21:21:51.498Z,5.85
2019-03-05T21:24:21.105Z,5.83
2019-03-05T21:26:50.572Z,5.82
2019-03-05T21:29:21.271Z,5.79
2019-03-05T21:31:50.832Z,5.78
2019-03-05T21:34:20.328Z,5.78
2019-03-05T21:36:50.124Z,5.78
2019-03-05T21:39:19.685Z,5.77
2019-03-05T21:41:49.192Z,5.78
2019-03-05T21:44:18.709Z,5.78
2019-03-05T21:46:48.298Z,5.78
2019-03-05T21:49:17.931Z,5.80
2019-03-05T21:51:47.578Z,5.80
2019-03-05T21:54:17.154Z,5.82
2019-03-05T21:56:46.611Z,5.85
2019-03-05T21:59:16.094Z,5.87
2019-03-05T22:01:45.571Z,5.92
2019-03-05T22:04:15.181Z,5.94
2019-03-05T22:06:44.659Z,5.98
2019-03-05T22:09:14.259Z,6.02
2019-03-05T22:11:43.968Z,6.05
2019-03-05T22:14:13.431Z,6.08
2019-03-05T22:16:42.929Z,6.11
2019-03-05T22:19:12.557Z,6.15
2019-03-05T22:21:42.142Z,6.19
2019-03-05T22:24:11.740Z,6.25
2019-03-05T22:26:41.238Z,6.29
2019-03-05T22:29:10.795Z,6.35
2019-03-05T22:31:40.445Z,6.40
2019-03-05T22:34:09.973Z,6.47
2019-03-05T22:36:39.544Z,6.54
2019-03-05T22:39:09.164Z,6.59
2019-03-05T22:41:39.495Z,6.66
2019-03-05T22:44:09.010Z,6.74
2019-03-05T22:46:38.608Z,6.81
2019-03-05T22:49:08.140Z,6.89
2019-03-05T22:51:37.672Z,6.96
2019-03-05T22:54:07.221Z,7.03
2019-03-05T22:56:36.822Z,7.10
2019-03-05T22:59:06.673Z,7.18
2019-03-05T23:01:37.464Z,7.25
2019-03-05T23:04:07.315Z,7.33
2019-03-05T23:06:37.004Z,7.38
2019-03-05T23:09:09.830Z,7.46
2019-03-05T23:11:39.378Z,7.53
2019-03-05T23:14:09.029Z,7.58
2019-03-05T23:16:38.605Z,7.67
2019-03-05T23:19:08.369Z,7.74
2019-03-05T23:21:38.202Z,7.81
2019-03-05T23:24:08.081Z,7.87
2019-03-05T23:26:37.576Z,7.93
2019-03-05T23:29:09.628Z,8.00
2019-03-05T23:31:39.273Z,8.06
2019-03-05T23:34:17.881Z,8.12
2019-03-05T23:36:40.084Z,8.19
2019-03-05T23:39:13.030Z,8.24
2019-03-05T23:41:42.672Z,8.31
2019-03-05T23:44:12.434Z,8.37
2019-03-05T23:46:42.055Z,8.43
2019-03-05T23:49:11.748Z,8.48
2019-03-05T23:51:41.256Z,8.53
2019-03-05T23:54:10.837Z,8.58
2019-03-05T23:56:40.361Z,8.64
2019-03-05T23:59:09.858Z,8.68
